createdAt,value
2022-11-16T20:46:53.819Z,4.31
2022-11-16T20:49:21.693Z,4.32
2022-11-16T20:51:51.166Z,4.39
2022-11-16T20:54:18.893Z,4.46
2022-11-16T20:56:49.625Z,4.48
2022-11-16T20:59:17.609Z,4.52
2022-11-16T21:01:48.225Z,4.57
2022-11-16T21:04:16.341Z,4.60
2022-11-16T21:06:44.156Z,4.61
2022-11-16T21:09:12.409Z,4.61
2022-11-16T21:11:58.891Z,4.59
2022-11-16T21:14:26.779Z,4.54
2022-11-16T21:16:54.602Z,4.50
2022-11-16T21:19:22.363Z,4.48
2022-11-16T21:21:50.195Z,4.44
2022-11-16T21:24:18.022Z,4.41
2022-11-16T21:26:45.740Z,4.39
2022-11-16T21:29:13.527Z,4.41
2022-11-16T21:31:41.323Z,4.39
2022-11-16T21:34:09.098Z,4.40
2022-11-16T21:36:36.930Z,4.42
2022-11-16T21:39:04.733Z,4.37
2022-11-16T21:41:32.466Z,4.25
2022-11-16T21:44:00.195Z,4.20
2022-11-16T21:46:27.972Z,4.18
2022-11-16T21:48:56.831Z,4.16
2022-11-16T21:51:27.244Z,4.11
2022-11-16T21:53:55.645Z,4.03
2022-11-16T21:56:25.660Z,3.96
2022-11-16T21:58:54.432Z,3.93
2022-11-16T22:01:23.953Z,3.91
2022-11-16T22:04:11.097Z,3.87
2022-11-16T22:06:57.782Z,3.87
2022-11-16T22:09:25.572Z,3.88
2022-11-16T22:11:53.746Z,3.87
2022-11-16T22:14:21.479Z,3.84
2022-11-16T22:16:49.220Z,3.83
2022-11-16T22:19:17.057Z,3.80
2022-11-16T22:21:44.871Z,3.77
2022-11-16T22:24:12.659Z,3.72
2022-11-16T22:26:41.183Z,3.70
2022-11-16T22:29:08.905Z,3.66
2022-11-16T22:31:36.746Z,3.65
2022-11-16T22:34:04.589Z,3.63
2022-11-16T22:36:32.355Z,3.61
2022-11-16T22:39:01.006Z,3.58
2022-11-16T22:41:28.869Z,3.53
2022-11-16T22:43:56.643Z,3.50
2022-11-16T22:46:24.500Z,3.51
2022-11-16T22:48:52.368Z,3.46
2022-11-16T22:51:21.473Z,3.42
2022-11-16T22:54:07.459Z,3.38
2022-11-16T22:56:35.334Z,3.30
2022-11-16T22:59:03.445Z,3.29
2022-11-16T23:01:32.336Z,3.27
2022-11-16T23:04:00.303Z,3.24
2022-11-16T23:06:28.535Z,3.22
2022-11-16T23:08:56.296Z,3.20
2022-11-16T23:11:44.701Z,3.16
2022-11-16T23:14:36.121Z,3.14
2022-11-16T23:17:04.705Z,3.08
2022-11-16T23:19:53.149Z,3.02
2022-11-16T23:22:40.826Z,2.97
2022-11-16T23:25:30.203Z,2.91
2022-11-16T23:28:01.076Z,2.87
2022-11-16T23:30:28.919Z,2.82
2022-11-16T23:32:57.034Z,2.79
2022-11-16T23:35:24.850Z,2.75
2022-11-16T23:38:04.490Z,2.74
2022-11-16T23:40:40.090Z,2.70
2022-11-16T23:43:28.996Z,2.70
2022-11-16T23:45:56.760Z,2.66
2022-11-16T23:48:24.683Z,2.64
2022-11-16T23:50:52.563Z,2.62
2022-11-16T23:53:20.416Z,2.62
2022-11-16T23:55:48.384Z,2.61
2022-11-16T23:58:16.824Z,2.57
